Time;durP1;ratioP1;P1;durP2;ratioP2;P2;SDS_P1;SDS_P2;PMS_P1;PMS_P2;Temp;Humidity;BMP_temperature;BMP_pressure;BME280_temperature;BME280_humidity;BME280_pressure;Samples;Min_cycle;Max_cycle;Signal;HPM_P1;HPM_P2
2023/06/22 00:00:58;;;;;;;6.05;4.20;;;;;;;21.60;100.00;101860.38;4966657;28;20122;-72
2023/06/22 00:03:26;;;;;;;6.53;4.03;;;;;;;21.53;100.00;101862.16;4964338;28;20083;-72
2023/06/22 00:05:53;;;;;;;5.40;3.90;;;;;;;21.46;100.00;101864.78;4987956;28;20082;-72
2023/06/22 00:08:20;;;;;;;6.53;3.85;;;;;;;21.42;100.00;101860.78;4976385;28;20141;-72
2023/06/22 00:10:46;;;;;;;5.47;3.58;;;;;;;21.45;99.12;101862.31;4981232;28;20043;-72
2023/06/22 00:13:14;;;;;;;7.35;3.47;;;;;;;21.45;98.01;101865.78;4971423;28;20074;-71
2023/06/22 00:15:41;;;;;;;7.80;3.50;;;;;;;21.48;95.36;101857.41;4958476;28;20051;-71
2023/06/22 00:18:10;;;;;;;5.15;3.40;;;;;;;21.47;95.04;101850.41;4982376;28;20062;-72
2023/06/22 00:20:37;;;;;;;4.47;3.17;;;;;;;21.48;94.35;101841.41;4967936;28;20055;-71
2023/06/22 00:23:08;;;;;;;7.05;3.47;;;;;;;21.45;92.75;101841.78;4964928;28;20051;-70
2023/06/22 00:25:35;;;;;;;6.03;3.47;;;;;;;21.45;93.72;101846.28;4965667;28;20423;-72
2023/06/22 00:28:03;;;;;;;4.28;3.00;;;;;;;21.43;94.92;101856.31;4974783;28;20054;-71
2023/06/22 00:30:31;;;;;;;4.47;3.05;;;;;;;21.36;97.43;101856.22;4960292;28;20625;-71
2023/06/22 00:32:58;;;;;;;6.13;2.80;;;;;;;21.31;98.64;101843.47;4974491;28;20146;-72
2023/06/22 00:35:29;;;;;;;5.43;3.53;;;;;;;21.26;97.89;101837.06;4976268;28;20134;-72
2023/06/22 00:38:04;;;;;;;5.63;3.20;;;;;;;21.24;96.66;101839.09;4965085;28;20480;-71
2023/06/22 00:40:32;;;;;;;7.60;4.22;;;;;;;21.23;96.76;101848.09;4983282;28;20133;-71
2023/06/22 00:42:59;;;;;;;5.20;3.70;;;;;;;21.21;98.88;101851.00;4983407;28;20132;-71
2023/06/22 00:45:26;;;;;;;5.45;3.85;;;;;;;21.22;97.25;101846.47;4971071;28;20050;-72
2023/06/22 00:47:55;;;;;;;4.60;3.60;;;;;;;21.17;96.94;101831.06;4975539;28;20479;-72
2023/06/22 00:50:25;;;;;;;6.68;4.00;;;;;;;21.19;96.78;101839.69;4970969;28;20558;-72
2023/06/22 00:52:58;;;;;;;8.73;4.40;;;;;;;21.15;99.03;101843.75;4982180;28;20439;-71
2023/06/22 00:55:28;;;;;;;8.45;4.22;;;;;;;21.12;98.47;101846.81;4973265;28;20050;-71
2023/06/22 00:57:55;;;;;;;8.60;4.63;;;;;;;21.11;98.23;101843.31;4978806;28;20057;-71
2023/06/22 01:00:24;;;;;;;10.38;4.70;;;;;;;21.12;99.33;101850.28;4973084;28;20046;-71
2023/06/22 01:02:52;;;;;;;7.97;4.43;;;;;;;21.10;99.48;101854.16;4961437;28;20546;-72
2023/06/22 01:05:21;;;;;;;7.18;3.88;;;;;;;21.06;97.77;101848.38;4993476;28;20054;-71
2023/06/22 01:08:15;;;;;;;6.70;4.30;;;;;;;21.03;99.93;101846.13;4984672;28;20486;-71
2023/06/22 01:10:48;;;;;;;6.03;4.38;;;;;;;21.01;100.00;101847.31;4981847;28;20716;-71
2023/06/22 01:13:29;;;;;;;8.88;4.65;;;;;;;20.96;100.00;101850.56;4976230;28;20108;-70
2023/06/22 01:16:07;;;;;;;8.18;4.30;;;;;;;20.90;100.00;101844.13;4969550;28;20105;-72
2023/06/22 01:18:38;;;;;;;6.45;4.15;;;;;;;20.81;100.00;101845.25;4980566;28;20109;-70
2023/06/22 01:21:09;;;;;;;9.15;4.70;;;;;;;20.74;100.00;101842.53;4974563;28;20105;-71
2023/06/22 01:23:47;;;;;;;8.70;4.28;;;;;;;20.69;100.00;101836.94;4980119;28;20054;-71
2023/06/22 01:26:19;;;;;;;5.20;3.95;;;;;;;20.67;100.00;101846.16;4988905;28;20046;-71
2023/06/22 01:28:50;;;;;;;7.97;4.18;;;;;;;20.58;100.00;101837.41;4975370;28;20047;-73
2023/06/22 01:31:20;;;;;;;5.05;3.70;;;;;;;20.51;100.00;101829.34;4975020;28;20050;-72
2023/06/22 01:33:59;;;;;;;5.70;3.88;;;;;;;20.41;100.00;101828.00;4970968;28;20137;-70
2023/06/22 01:36:26;;;;;;;5.20;3.58;;;;;;;20.40;100.00;101829.81;4979838;28;20054;-71
2023/06/22 01:38:54;;;;;;;8.60;4.20;;;;;;;20.36;100.00;101831.19;4987451;28;20046;-71
2023/06/22 01:41:21;;;;;;;7.97;3.97;;;;;;;20.30;100.00;101839.94;4968438;28;20108;-71
2023/06/22 01:43:48;;;;;;;;;;;;;;;20.25;100.00;101834.38;4988932;28;20144;-72
2023/06/22 01:46:15;;;;;;;7.13;3.92;;;;;;;20.27;100.00;101824.34;4973251;28;19925;-71
2023/06/22 01:48:42;;;;;;;6.57;4.05;;;;;;;20.22;100.00;101819.56;4985615;28;20058;-70
2023/06/22 01:51:09;;;;;;;5.00;3.67;;;;;;;20.18;100.00;101820.94;4979340;28;20050;-71
2023/06/22 01:53:36;;;;;;;5.85;3.58;;;;;;;20.20;100.00;101813.59;4982851;28;20124;-72
2023/06/22 01:56:03;;;;;;;6.35;3.72;;;;;;;20.09;100.00;101812.25;4979651;28;20050;-70
2023/06/22 01:58:31;;;;;;;7.30;3.88;;;;;;;20.08;100.00;101821.22;4979778;28;20134;-70
2023/06/22 02:00:57;;;;;;;;;;;;;;;20.08;100.00;101817.75;4973859;28;20062;-73
2023/06/22 02:03:34;;;;;;;8.40;4.40;;;;;;;20.08;100.00;101817.75;4967952;28;19972;-71
2023/06/22 02:06:10;;;;;;;7.25;4.28;;;;;;;20.06;100.00;101819.78;4990207;28;20042;-71
2023/06/22 02:08:42;;;;;;;7.63;3.67;;;;;;;20.07;100.00;101832.91;4980111;28;20054;-70
2023/06/22 02:11:13;;;;;;;8.55;4.07;;;;;;;20.10;100.00;101824.53;4973284;28;20062;-71
2023/06/22 02:13:42;;;;;;;5.82;3.53;;;;;;;20.15;100.00;101824.00;4984732;28;20046;-71
2023/06/22 02:16:11;;;;;;;6.55;4.07;;;;;;;20.13;100.00;101832.16;4967419;28;20061;-71
2023/06/22 02:18:40;;;;;;;6.45;3.88;;;;;;;20.10;100.00;101823.72;4990634;28;20121;-71
2023/06/22 02:21:06;;;;;;;7.13;4.32;;;;;;;20.05;100.00;101826.94;4984591;28;20054;-71
2023/06/22 02:23:35;;;;;;;7.15;3.88;;;;;;;19.93;100.00;101821.25;4984008;28;20134;-70
2023/06/22 02:26:03;;;;;;;5.20;3.38;;;;;;;19.90;100.00;101818.13;4980552;28;20069;-77
2023/06/22 02:28:29;;;;;;;7.00;3.85;;;;;;;19.79;100.00;101810.59;4977046;28;20137;-77
2023/06/22 02:30:56;;;;;;;6.05;3.50;;;;;;;19.77;100.00;101810.75;4989646;28;20073;-74
2023/06/22 02:33:23;;;;;;;5.07;3.50;;;;;;;19.69;100.00;101806.31;4966745;28;20054;-77
2023/06/22 02:35:49;;;;;;;6.90;3.85;;;;;;;19.71;100.00;101801.66;4994856;28;20115;-77
2023/06/22 02:38:17;;;;;;;4.85;3.78;;;;;;;19.73;100.00;101804.16;4980536;28;20451;-79
2023/06/22 02:40:44;;;;;;;7.47;4.60;;;;;;;19.71;100.00;101804.34;4987562;28;20043;-78
2023/06/22 02:43:10;;;;;;;5.90;3.47;;;;;;;19.69;100.00;101797.53;4978167;28;20744;-76
2023/06/22 02:45:37;;;;;;;7.00;4.10;;;;;;;19.68;100.00;101802.03;4990033;28;20050;-78
2023/06/22 02:48:04;;;;;;;6.38;4.07;;;;;;;19.64;100.00;101800.75;4991112;28;20050;-78
2023/06/22 02:50:30;;;;;;;5.53;3.95;;;;;;;19.59;100.00;101804.94;4985239;28;20054;-79
2023/06/22 02:52:58;;;;;;;4.88;3.53;;;;;;;19.61;100.00;101803.75;4980816;28;20065;-74
2023/06/22 02:55:24;;;;;;;6.22;3.83;;;;;;;19.62;100.00;101810.75;4963527;28;20053;-78
2023/06/22 02:57:54;;;;;;;7.35;4.22;;;;;;;19.60;100.00;101807.44;4975298;28;20050;-77
2023/06/22 03:00:21;;;;;;;6.88;3.90;;;;;;;19.54;100.00;101803.66;4979489;28;20056;-78
2023/06/22 03:02:49;;;;;;;7.78;4.20;;;;;;;19.48;100.00;101795.56;4992506;28;20109;-76
2023/06/22 03:05:17;;;;;;;;;;;;;;;19.53;100.00;101798.53;4976182;28;20050;-79
2023/06/22 03:07:44;;;;;;;;;;;;;;;19.53;100.00;101793.19;4978797;28;20572;-79
2023/06/22 03:10:12;;;;;;;7.90;4.65;;;;;;;19.54;100.00;101789.50;4990904;28;19926;-77
2023/06/22 03:12:40;;;;;;;8.35;4.25;;;;;;;19.51;100.00;101789.91;4983969;28;20644;-78
2023/06/22 03:15:07;;;;;;;7.90;4.82;;;;;;;19.54;100.00;101794.84;4975442;28;20054;-78
2023/06/22 03:17:35;;;;;;;6.47;4.45;;;;;;;19.55;100.00;101793.84;4974044;28;20057;-79
2023/06/22 03:20:10;;;;;;;6.43;3.85;;;;;;;19.60;100.00;101794.13;4970613;28;20104;-78
2023/06/22 03:22:38;;;;;;;8.27;4.50;;;;;;;19.59;100.00;101791.66;4981381;28;20138;-79
2023/06/22 03:25:09;;;;;;;8.48;4.68;;;;;;;19.53;100.00;101782.56;4983326;28;20077;-78
2023/06/22 03:27:37;;;;;;;8.38;4.38;;;;;;;19.50;100.00;101781.09;4990073;28;20050;-76
2023/06/22 03:30:04;;;;;;;6.80;4.60;;;;;;;19.46;100.00;101774.44;4980611;28;20073;-79
2023/06/22 03:32:31;;;;;;;9.27;5.90;;;;;;;19.49;100.00;101762.66;4986535;28;20074;-77
2023/06/22 03:34:58;;;;;;;9.38;5.70;;;;;;;19.46;100.00;101766.47;4978595;28;20165;-75
2023/06/22 03:37:26;;;;;;;7.70;5.28;;;;;;;19.45;100.00;101769.34;4965772;28;20484;-77
2023/06/22 03:39:53;;;;;;;8.50;5.53;;;;;;;19.39;100.00;101770.88;4993989;28;20053;-77
2023/06/22 03:42:19;;;;;;;9.23;5.95;;;;;;;19.38;100.00;101773.72;4981926;28;20388;-78
2023/06/22 03:44:46;;;;;;;9.07;5.82;;;;;;;19.36;100.00;101764.06;4983425;28;20092;-78
2023/06/22 03:47:13;;;;;;;10.77;7.30;;;;;;;19.38;100.00;101773.72;4978794;28;20050;-79
2023/06/22 03:49:39;;;;;;;9.95;7.38;;;;;;;19.40;100.00;101766.38;4966686;28;20628;-78
2023/06/22 03:52:06;;;;;;;12.88;8.40;;;;;;;19.40;100.00;101763.72;4965729;28;20051;-77
2023/06/22 03:54:33;;;;;;;11.45;8.57;;;;;;;19.39;100.00;101765.56;4982947;28;20066;-77
2023/06/22 03:56:59;;;;;;;18.23;9.75;;;;;;;19.44;100.00;101765.84;4975992;28;20046;-77
2023/06/22 03:59:26;;;;;;;14.13;9.10;;;;;;;19.42;100.00;101764.38;4975123;28;20491;-78
2023/06/22 04:01:52;;;;;;;13.63;9.90;;;;;;;19.41;100.00;101757.41;4969389;28;20070;-77
2023/06/22 04:04:19;;;;;;;14.88;10.65;;;;;;;19.42;100.00;101759.88;4980701;28;20109;-78
2023/06/22 04:06:46;;;;;;;14.25;10.77;;;;;;;19.43;100.00;101756.22;4981287;28;20677;-77
2023/06/22 04:09:13;;;;;;;14.25;10.63;;;;;;;19.46;100.00;101765.66;4970671;28;20078;-78
2023/06/22 04:11:39;;;;;;;19.92;12.23;;;;;;;19.46;100.00;101763.00;4982371;28;20563;-78
2023/06/22 04:14:06;;;;;;;16.27;12.00;;;;;;;19.52;100.00;101763.09;4972061;28;20081;-76
2023/06/22 04:16:33;;;;;;;17.42;12.20;;;;;;;19.58;100.00;101766.03;4969796;28;20109;-75
2023/06/22 04:19:00;;;;;;;19.50;13.18;;;;;;;19.62;100.00;101764.66;4985126;28;20518;-78
2023/06/22 04:21:26;;;;;;;18.23;12.70;;;;;;;19.66;100.00;101769.44;4966928;28;20058;-77
2023/06/22 04:23:53;;;;;;;19.63;13.25;;;;;;;19.70;100.00;101765.41;4974629;28;20058;-79
2023/06/22 04:26:20;;;;;;;17.90;12.63;;;;;;;19.71;100.00;101766.22;4981088;28;20870;-77
2023/06/22 04:28:51;;;;;;;20.17;14.57;;;;;;;19.75;100.00;101764.88;4984735;28;21034;-78
2023/06/22 04:31:19;;;;;;;18.08;14.35;;;;;;;19.77;100.00;101765.50;4971660;28;20289;-76
2023/06/22 04:33:45;;;;;;;17.13;13.88;;;;;;;19.79;100.00;101760.81;4978959;28;20050;-78
2023/06/22 04:36:15;;;;;;;18.42;14.25;;;;;;;19.82;100.00;101771.13;4989041;28;20054;-78
2023/06/22 04:38:42;;;;;;;19.90;15.65;;;;;;;19.85;100.00;101767.25;4967974;28;20058;-76
2023/06/22 04:41:14;;;;;;;17.47;15.60;;;;;;;19.87;100.00;101760.72;4993905;28;20050;-76
2023/06/22 04:43:40;;;;;;;22.17;17.15;;;;;;;19.89;100.00;101765.88;4969410;28;20058;-78
2023/06/22 04:46:07;;;;;;;24.33;18.33;;;;;;;19.92;100.00;101762.84;4985756;28;20128;-77
2023/06/22 04:48:33;;;;;;;20.52;16.92;;;;;;;19.97;100.00;101767.59;4981672;28;20057;-78
2023/06/22 04:51:03;;;;;;;21.25;17.60;;;;;;;19.97;100.00;101755.13;4987557;28;20443;-78
2023/06/22 04:53:31;;;;;;;20.85;18.38;;;;;;;20.02;100.00;101757.25;4979753;28;20046;-79
2023/06/22 04:55:58;;;;;;;20.98;17.40;;;;;;;20.00;100.00;101752.09;4968519;28;20471;-74
2023/06/22 04:58:26;;;;;;;24.40;18.23;;;;;;;20.04;100.00;101764.03;4987328;28;20073;-78
2023/06/22 05:00:53;;;;;;;22.65;18.92;;;;;;;20.01;100.00;101755.56;4981435;28;20085;-74
2023/06/22 05:03:20;;;;;;;22.73;18.05;;;;;;;20.07;100.00;101757.50;4990352;28;20055;-77
2023/06/22 05:05:47;;;;;;;25.02;19.10;;;;;;;20.12;100.00;101755.09;4987519;28;20094;-77
2023/06/22 05:08:13;;;;;;;22.27;17.52;;;;;;;20.17;100.00;101749.19;4984029;28;20062;-74
2023/06/22 05:10:40;;;;;;;22.55;19.15;;;;;;;20.19;100.00;101755.16;4980136;28;20456;-74
2023/06/22 05:13:26;;;;;;;21.42;17.55;;;;;;;20.22;100.00;101746.81;4973082;28;20050;-77
2023/06/22 05:16:00;;;;;;;21.17;18.00;;;;;;;20.30;100.00;101752.84;4981296;28;20051;-75
2023/06/22 05:18:29;;;;;;;22.05;17.92;;;;;;;20.32;100.00;101753.47;4969585;28;20123;-73
2023/06/22 05:20:56;;;;;;;;;;;;;;;20.41;100.00;101758.72;4992615;28;20055;-78
2023/06/22 05:23:22;;;;;;;21.90;17.13;;;;;;;20.39;100.00;101750.91;4980746;28;19936;-75
2023/06/22 05:25:49;;;;;;;20.15;16.88;;;;;;;20.42;100.00;101752.34;4996748;28;20052;-73
2023/06/22 05:28:15;;;;;;;23.40;19.08;;;;;;;20.47;100.00;101757.94;5007935;28;20034;-74
2023/06/22 05:30:42;;;;;;;23.77;16.15;;;;;;;20.51;100.00;101754.72;4993968;28;20050;-74
2023/06/22 05:33:08;;;;;;;20.58;16.33;;;;;;;20.52;100.00;101751.03;4995803;28;20652;-78
2023/06/22 05:35:35;;;;;;;20.10;16.10;;;;;;;20.55;100.00;101752.50;4989641;28;20063;-77
2023/06/22 05:38:01;;;;;;;19.58;15.93;;;;;;;20.57;100.00;101757.66;4992239;28;20077;-77
2023/06/22 05:40:28;;;;;;;22.10;16.75;;;;;;;20.62;100.00;101765.91;4990060;28;20129;-75
2023/06/22 05:42:55;;;;;;;20.80;15.80;;;;;;;20.66;100.00;101770.69;4984482;28;20499;-76
2023/06/22 05:45:21;;;;;;;20.65;16.35;;;;;;;20.74;100.00;101775.06;4994854;28;20095;-79
2023/06/22 05:47:48;;;;;;;21.00;16.73;;;;;;;20.75;100.00;101774.03;4980132;28;20054;-79
2023/06/22 05:50:14;;;;;;;20.88;16.10;;;;;;;20.78;100.00;101775.50;4974953;28;20072;-79
2023/06/22 05:52:41;;;;;;;21.58;15.60;;;;;;;20.83;100.00;101776.56;4965747;28;20104;-78
2023/06/22 05:55:08;;;;;;;17.70;15.60;;;;;;;20.87;100.00;101780.50;4985107;28;20070;-78
2023/06/22 05:57:35;;;;;;;18.38;14.23;;;;;;;20.90;100.00;101774.78;4977595;28;20069;-78
2023/06/22 06:00:02;;;;;;;17.92;14.73;;;;;;;20.96;100.00;101777.72;4986604;28;20250;-77
2023/06/22 06:02:29;;;;;;;18.33;14.05;;;;;;;21.00;100.00;101774.47;4975921;28;20050;-77
2023/06/22 06:04:56;;;;;;;17.88;13.60;;;;;;;21.05;100.00;101772.06;4982478;28;20073;-76
2023/06/22 06:07:22;;;;;;;19.73;15.02;;;;;;;21.08;100.00;101771.66;4985856;28;20055;-78
2023/06/22 06:09:49;;;;;;;20.95;15.50;;;;;;;21.12;100.00;101772.91;4987169;28;20136;-78
2023/06/22 06:12:15;;;;;;;19.33;15.88;;;;;;;21.12;100.00;101778.25;4975139;28;20077;-79
2023/06/22 06:14:42;;;;;;;16.10;11.80;;;;;;;21.20;100.00;101773.81;4974652;28;20061;-79
2023/06/22 06:17:08;;;;;;;14.95;11.40;;;;;;;21.21;100.00;101776.28;4965805;28;20039;-78
2023/06/22 06:19:35;;;;;;;18.70;15.63;;;;;;;21.24;100.00;101777.75;4985711;28;20055;-75
2023/06/22 06:22:01;;;;;;;17.95;15.48;;;;;;;21.30;100.00;101780.44;4975576;28;20555;-79
2023/06/22 06:24:28;;;;;;;23.75;17.48;;;;;;;21.37;100.00;101777.84;4986864;28;20066;-76
2023/06/22 06:26:55;;;;;;;19.50;15.85;;;;;;;21.41;100.00;101768.41;4986695;28;20056;-77
2023/06/22 06:29:23;;;;;;;18.60;16.52;;;;;;;21.50;100.00;101764.63;4982338;28;20109;-77
2023/06/22 06:31:50;;;;;;;18.80;16.52;;;;;;;21.56;100.00;101760.34;4984276;28;20051;-77
2023/06/22 06:34:20;;;;;;;18.23;15.15;;;;;;;21.58;100.00;101752.13;4962126;28;20570;-77
2023/06/22 06:36:46;;;;;;;20.40;16.15;;;;;;;21.63;100.00;101755.03;4969360;28;20050;-78
2023/06/22 06:39:13;;;;;;;21.85;17.02;;;;;;;21.70;100.00;101755.91;4966518;28;20058;-77
2023/06/22 06:41:39;;;;;;;16.35;14.25;;;;;;;21.78;100.00;101758.41;4993498;28;20451;-77
2023/06/22 06:44:06;;;;;;;20.67;16.58;;;;;;;21.84;100.00;101754.13;4985228;28;20584;-74
2023/06/22 06:46:33;;;;;;;19.10;13.77;;;;;;;21.91;100.00;101744.25;4968582;28;20065;-76
2023/06/22 06:48:59;;;;;;;14.60;12.13;;;;;;;22.01;100.00;101750.09;4982756;28;20475;-76
2023/06/22 06:51:26;;;;;;;19.58;16.95;;;;;;;22.07;100.00;101751.09;4964777;28;20101;-78
2023/06/22 06:53:52;;;;;;;13.90;9.07;;;;;;;22.18;100.00;101753.19;4977611;28;20050;-77
2023/06/22 06:56:19;;;;;;;15.18;13.00;;;;;;;22.28;100.00;101748.31;4965730;28;20108;-76
2023/06/22 06:58:46;;;;;;;19.10;15.75;;;;;;;22.36;100.00;101744.63;4975709;28;20077;-77
2023/06/22 07:01:13;;;;;;;19.05;16.50;;;;;;;22.43;100.00;101742.00;4971077;28;20593;-76
2023/06/22 07:03:39;;;;;;;20.20;15.82;;;;;;;22.47;100.00;101745.91;4977733;28;20109;-76
2023/06/22 07:06:06;;;;;;;20.20;14.90;;;;;;;22.56;100.00;101736.69;4987680;28;20050;-76
2023/06/22 07:08:32;;;;;;;22.80;16.95;;;;;;;22.59;100.00;101735.44;4960461;28;20054;-76
2023/06/22 07:11:00;;;;;;;19.40;15.10;;;;;;;22.66;100.00;101736.28;4990702;28;20094;-76
2023/06/22 07:13:27;;;;;;;18.80;14.10;;;;;;;22.72;100.00;101740.81;4970691;28;20046;-76
2023/06/22 07:15:53;;;;;;;21.75;16.80;;;;;;;22.80;100.00;101737.09;4986693;28;20129;-76
2023/06/22 07:18:20;;;;;;;21.35;17.10;;;;;;;22.94;100.00;101732.56;4976839;28;20519;-76
2023/06/22 07:20:47;;;;;;;18.40;14.43;;;;;;;23.04;100.00;101731.16;4981258;28;20054;-77
2023/06/22 07:23:13;;;;;;;19.63;15.93;;;;;;;23.15;100.00;101736.91;4975654;28;20042;-75
2023/06/22 07:25:40;;;;;;;20.13;15.05;;;;;;;23.22;100.00;101729.69;4965383;28;20057;-75
2023/06/22 07:28:07;;;;;;;17.65;15.13;;;;;;;23.28;100.00;101728.84;4986721;28;20112;-77
2023/06/22 07:30:34;;;;;;;20.40;16.65;;;;;;;23.36;100.00;101717.91;4973484;28;20136;-75
2023/06/22 07:33:07;;;;;;;18.23;15.32;;;;;;;23.41;100.00;101711.94;4985931;28;20054;-76
2023/06/22 07:35:36;;;;;;;17.55;14.88;;;;;;;23.51;100.00;101709.66;4988622;28;20272;-75
2023/06/22 07:38:03;;;;;;;19.33;16.17;;;;;;;23.60;100.00;101711.06;4983077;28;20042;-76
2023/06/22 07:40:32;;;;;;;17.35;14.80;;;;;;;23.68;100.00;101710.81;4988475;28;21225;-75
2023/06/22 07:43:03;;;;;;;19.00;15.60;;;;;;;23.75;100.00;101709.97;4979272;28;20277;-76
2023/06/22 07:45:29;;;;;;;15.00;11.98;;;;;;;23.90;97.70;101707.06;4967637;28;20466;-76
2023/06/22 07:47:56;;;;;;;19.00;15.65;;;;;;;23.94;100.00;101694.88;4978401;28;20042;-76
2023/06/22 07:50:22;;;;;;;18.73;14.13;;;;;;;23.98;99.26;101698.78;4967882;28;20050;-75
2023/06/22 07:52:49;;;;;;;18.13;13.90;;;;;;;24.10;98.34;101704.28;4969423;28;20057;-75
2023/06/22 07:55:16;;;;;;;14.77;13.15;;;;;;;24.13;96.61;101706.50;4982062;28;20053;-75
2023/06/22 07:57:42;;;;;;;15.73;13.18;;;;;;;24.19;96.38;101698.44;4968387;28;20046;-75
2023/06/22 08:00:14;;;;;;;16.58;11.20;;;;;;;24.23;92.39;101702.34;4973584;28;20047;-75
2023/06/22 08:02:42;;;;;;;20.98;13.18;;;;;;;24.25;92.82;101694.91;4986553;28;20054;-75
2023/06/22 08:05:10;;;;;;;15.38;9.65;;;;;;;24.33;91.98;101703.72;4976080;28;20530;-75
2023/06/22 08:07:47;;;;;;;15.32;12.13;;;;;;;24.37;90.11;101699.56;4974539;28;20470;-75
2023/06/22 08:10:15;;;;;;;15.23;11.83;;;;;;;24.41;90.18;101698.91;4976311;28;20077;-75
2023/06/22 08:12:42;;;;;;;18.67;12.43;;;;;;;24.46;91.55;101691.03;4977726;28;20547;-75
2023/06/22 08:15:09;;;;;;;14.37;11.97;;;;;;;24.55;89.03;101683.56;4983472;28;20638;-74
2023/06/22 08:17:40;;;;;;;13.90;10.63;;;;;;;24.61;88.34;101687.25;4985095;28;20292;-76
2023/06/22 08:20:14;;;;;;;13.20;10.98;;;;;;;24.66;87.28;101674.81;4991435;28;20049;-76
2023/06/22 08:22:41;;;;;;;12.07;10.20;;;;;;;24.67;85.67;101671.06;4979553;28;20058;-75
2023/06/22 08:25:09;;;;;;;14.73;10.40;;;;;;;24.70;88.15;101658.25;4988129;28;20058;-75
2023/06/22 08:27:35;;;;;;;12.55;10.50;;;;;;;24.79;87.36;101660.44;4981438;28;20054;-76
2023/06/22 08:30:02;;;;;;;15.10;10.43;;;;;;;24.85;86.01;101656.91;4991594;28;20061;-75
2023/06/22 08:32:29;;;;;;;14.77;11.00;;;;;;;24.92;86.21;101647.97;4975358;28;20605;-75
2023/06/22 08:34:57;;;;;;;14.40;10.95;;;;;;;25.04;84.42;101644.31;4970021;28;20157;-76
2023/06/22 08:37:30;;;;;;;14.60;10.93;;;;;;;25.29;84.39;101640.75;4972600;28;20051;-76
2023/06/22 08:39:59;;;;;;;15.23;10.95;;;;;;;25.45;84.55;101645.50;4978900;28;20059;-76
2023/06/22 08:42:26;;;;;;;11.32;8.27;;;;;;;25.55;85.56;101642.28;4980281;28;20055;-76
2023/06/22 08:44:53;;;;;;;14.55;10.82;;;;;;;25.57;82.62;101647.44;4989340;28;20046;-75
2023/06/22 08:47:21;;;;;;;13.23;9.25;;;;;;;25.63;85.03;101652.72;4979974;28;20065;-76
2023/06/22 08:49:48;;;;;;;12.75;10.50;;;;;;;25.67;81.18;101654.97;4990884;28;20054;-75
2023/06/22 08:52:15;;;;;;;13.40;9.57;;;;;;;25.72;82.02;101655.94;4973970;28;20043;-75
2023/06/22 08:54:41;;;;;;;12.00;9.00;;;;;;;25.76;79.18;101658.97;4968635;28;20137;-76
2023/06/22 08:57:08;;;;;;;11.98;8.20;;;;;;;25.83;78.69;101657.00;4981027;28;20046;-76
2023/06/22 08:59:34;;;;;;;9.23;6.20;;;;;;;25.94;77.47;101652.78;4975516;28;20050;-75
2023/06/22 09:02:01;;;;;;;13.57;9.27;;;;;;;26.00;74.15;101651.84;4987488;28;20043;-75
2023/06/22 09:04:27;;;;;;;11.32;8.48;;;;;;;26.09;76.24;101646.94;4967582;28;20046;-75
2023/06/22 09:06:54;;;;;;;15.37;10.03;;;;;;;26.13;73.54;101642.75;4987840;28;20576;-75
2023/06/22 09:09:22;;;;;;;12.35;7.78;;;;;;;26.43;74.39;101643.50;4978850;28;20316;-76
2023/06/22 09:11:48;;;;;;;10.48;8.77;;;;;;;26.73;70.90;101636.41;4973543;28;20058;-76
2023/06/22 09:14:15;;;;;;;10.18;8.32;;;;;;;26.91;71.47;101644.34;4985373;28;20765;-77
2023/06/22 09:16:41;;;;;;;9.50;8.02;;;;;;;27.05;70.46;101641.41;4982082;28;20618;-76
2023/06/22 09:19:08;;;;;;;13.02;8.85;;;;;;;27.11;69.16;101645.84;4987226;28;20050;-76
2023/06/22 09:21:34;;;;;;;10.30;6.75;;;;;;;27.20;67.60;101633.66;4982270;28;20058;-76
2023/06/22 09:24:01;;;;;;;9.60;7.20;;;;;;;27.42;67.35;101639.22;4983260;28;20058;-76
2023/06/22 09:26:28;;;;;;;9.38;7.85;;;;;;;27.40;63.43;101627.88;4965298;28;20054;-75
2023/06/22 09:28:54;;;;;;;8.68;7.60;;;;;;;27.38;64.09;101630.00;4972738;28;20054;-75
2023/06/22 09:31:27;;;;;;;11.05;7.78;;;;;;;27.38;62.59;101617.38;4985062;28;20073;-76
2023/06/22 09:33:55;;;;;;;11.00;8.25;;;;;;;27.31;60.59;101615.88;4985823;28;20541;-75
2023/06/22 09:36:21;;;;;;;11.65;7.15;;;;;;;27.28;62.67;101619.84;4970905;28;20549;-76
2023/06/22 09:38:49;;;;;;;8.55;6.60;;;;;;;27.23;62.54;101617.84;4961254;28;20054;-76
2023/06/22 09:41:15;;;;;;;9.32;7.60;;;;;;;27.23;62.41;101619.72;4976431;28;20050;-76
2023/06/22 09:43:42;;;;;;;10.50;7.28;;;;;;;27.14;63.19;101619.25;4977621;28;20415;-76
2023/06/22 09:46:09;;;;;;;8.85;6.93;;;;;;;27.13;63.19;101625.72;4990848;28;20140;-76
2023/06/22 09:48:36;;;;;;;9.65;6.75;;;;;;;27.12;62.79;101623.25;4974620;28;20470;-75
2023/06/22 09:51:06;;;;;;;11.82;7.85;;;;;;;27.01;61.77;101620.34;4972576;28;20186;-75
2023/06/22 09:53:34;;;;;;;8.00;6.95;;;;;;;26.97;62.05;101613.81;4967174;28;20054;-76
2023/06/22 09:56:01;;;;;;;10.43;8.13;;;;;;;26.85;61.50;101612.19;4964539;28;20053;-75
2023/06/22 09:58:28;;;;;;;8.52;6.80;;;;;;;26.87;60.94;101615.44;4978695;28;20480;-75
2023/06/22 10:00:54;;;;;;;11.30;6.25;;;;;;;26.86;61.63;101620.03;4987026;28;20108;-75
2023/06/22 10:03:21;;;;;;;7.13;6.38;;;;;;;26.83;60.85;101621.31;4981036;28;20051;-75
2023/06/22 10:05:48;;;;;;;7.57;5.88;;;;;;;26.78;60.34;101623.09;4974060;28;20058;-76
2023/06/22 10:08:14;;;;;;;9.35;5.45;;;;;;;26.74;60.89;101619.22;4991791;28;20062;-76
2023/06/22 10:10:41;;;;;;;8.65;5.70;;;;;;;26.66;60.70;101625.78;4983459;28;20054;-76
2023/06/22 10:13:12;;;;;;;8.65;6.53;;;;;;;26.65;61.83;101620.63;4992115;28;20037;-76
2023/06/22 10:15:39;;;;;;;6.78;5.57;;;;;;;26.65;61.95;101620.63;4998079;28;20057;-76
2023/06/22 10:18:05;;;;;;;11.98;6.82;;;;;;;26.56;59.34;101609.34;4995494;28;20092;-76
2023/06/22 10:20:32;;;;;;;6.18;4.95;;;;;;;26.58;61.33;101618.00;4987057;28;20051;-75
2023/06/22 10:22:59;;;;;;;9.18;5.43;;;;;;;26.58;60.45;101607.25;4985737;28;20113;-76
2023/06/22 10:25:26;;;;;;;6.05;4.50;;;;;;;26.60;61.91;101607.88;4976780;28;20050;-75
2023/06/22 10:27:53;;;;;;;6.10;4.68;;;;;;;26.58;62.82;101605.44;4983015;28;20475;-75
2023/06/22 10:30:21;;;;;;;11.05;6.97;;;;;;;26.64;61.55;101600.97;4991792;28;20133;-76
2023/06/22 10:32:48;;;;;;;9.63;6.07;;;;;;;26.60;61.17;101600.63;4984553;28;20478;-75
2023/06/22 10:35:15;;;;;;;9.80;6.15;;;;;;;26.60;61.24;101595.25;4982994;28;20050;-75
2023/06/22 10:37:44;;;;;;;8.98;6.93;;;;;;;26.52;60.52;101595.56;4990575;28;20050;-76
2023/06/22 10:40:15;;;;;;;8.55;6.30;;;;;;;26.56;62.20;101594.06;4982386;28;20046;-75
2023/06/22 10:42:42;;;;;;;9.85;6.10;;;;;;;26.52;63.15;101598.25;4975929;28;20053;-75
2023/06/22 10:45:09;;;;;;;8.10;6.70;;;;;;;26.54;62.33;101604.22;4964317;28;20050;-75
2023/06/22 10:47:36;;;;;;;8.38;5.30;;;;;;;26.51;63.90;101598.50;4981907;28;20069;-76
2023/06/22 10:50:04;;;;;;;7.82;6.40;;;;;;;26.53;64.96;101604.47;4979499;28;20623;-76
2023/06/22 10:52:30;;;;;;;13.38;5.57;;;;;;;26.48;66.11;101598.94;4967701;28;20117;-75
2023/06/22 10:54:57;;;;;;;7.40;5.78;;;;;;;26.48;64.61;101594.38;4987719;28;20105;-75
2023/06/22 10:57:24;;;;;;;9.75;7.15;;;;;;;26.43;63.69;101589.72;4985057;28;20052;-75
2023/06/22 10:59:52;;;;;;;12.10;7.00;;;;;;;26.42;63.30;101592.63;4970423;28;21682;-76
2023/06/22 11:02:19;;;;;;;6.68;5.15;;;;;;;26.45;64.62;101594.88;4970031;28;20043;-75
2023/06/22 11:04:47;;;;;;;7.20;5.82;;;;;;;26.42;64.56;101595.31;4985822;28;20049;-75
2023/06/22 11:07:16;;;;;;;8.20;6.07;;;;;;;26.42;63.41;101590.78;4989207;28;20081;-75
2023/06/22 11:09:43;;;;;;;8.90;7.00;;;;;;;26.44;65.55;101587.84;4978979;28;20054;-75
2023/06/22 11:12:10;;;;;;;10.18;7.00;;;;;;;26.45;64.71;101589.47;4980986;28;20448;-75
2023/06/22 11:14:38;;;;;;;8.35;7.00;;;;;;;26.38;62.81;101581.53;4970211;28;20047;-74
2023/06/22 11:17:04;;;;;;;;;;;;;;;26.31;64.48;101583.53;4978964;28;20054;-75